CZEM/ZEM METAR and TAF weather

Enter ICAO airport designator
Station Type Date Time Source
CZEM METAR 2022/06/27 18:00 UTC NOAA

CZEM 271800Z 30017G25KT 15SM BKN013 BKN080 08/05 A2979 RMK SC5AC1 SLP089


Station Type Date Time Source
CZEM Decoded METAR 2022/06/27 18:00 UTC NOAA

Eastmain River Airport, Canada (CZEM) 52-14N 078-31W
Jun 27, 2022 - 02:00 PM EDT / 2022.06.27 1800 UTC
Wind: from the WNW (300 degrees) at 20 MPH (17 KT) gusting to 29 MPH (25 KT):0
Visibility: 15 mile(s):0
Sky conditions: mostly cloudy
Temperature: 46 F (8 C)
Dew Point: 41 F (5 C)
Relative Humidity: 81%
Pressure (altimeter): 29.79 in. Hg (1008 hPa)
ob: CZEM 271800Z 30017G25KT 15SM BKN013 BKN080 08/05 A2979 RMK SC5AC1 SLP089
cycle: 18

Station Type Date Time Source
CZEM TAF UTC NOAA

Error!

Example: see airport list